sensor_id;sensor_type;location;lat;lon;timestamp;P1;durP1;ratioP1;P2;durP2;ratioP2
41077;SDS011;26823;42.662;23.352;2023-12-29T00:02:06;55.17;;;30.55;;
41077;SDS011;26823;42.662;23.352;2023-12-29T00:04:31;54.80;;;30.88;;
41077;SDS011;26823;42.662;23.352;2023-12-29T00:06:57;57.00;;;31.42;;
41077;SDS011;26823;42.662;23.352;2023-12-29T00:09:22;50.58;;;29.55;;
41077;SDS011;26823;42.662;23.352;2023-12-29T00:11:48;55.33;;;31.85;;
41077;SDS011;26823;42.662;23.352;2023-12-29T00:14:15;60.47;;;30.08;;
41077;SDS011;26823;42.662;23.352;2023-12-29T00:16:41;48.25;;;29.75;;
41077;SDS011;26823;42.662;23.352;2023-12-29T00:19:06;57.58;;;32.30;;
41077;SDS011;26823;42.662;23.352;2023-12-29T00:21:31;48.25;;;30.02;;
41077;SDS011;26823;42.662;23.352;2023-12-29T00:23:57;53.47;;;29.67;;
41077;SDS011;26823;42.662;23.352;2023-12-29T00:26:23;55.60;;;30.52;;
41077;SDS011;26823;42.662;23.352;2023-12-29T00:28:48;51.63;;;28.85;;
41077;SDS011;26823;42.662;23.352;2023-12-29T00:31:14;52.20;;;30.00;;
41077;SDS011;26823;42.662;23.352;2023-12-29T00:33:45;53.30;;;30.20;;
41077;SDS011;26823;42.662;23.352;2023-12-29T00:36:18;50.97;;;28.38;;
41077;SDS011;26823;42.662;23.352;2023-12-29T00:38:44;48.17;;;29.73;;
41077;SDS011;26823;42.662;23.352;2023-12-29T00:41:10;52.80;;;28.65;;
41077;SDS011;26823;42.662;23.352;2023-12-29T00:43:35;57.88;;;30.90;;
41077;SDS011;26823;42.662;23.352;2023-12-29T00:46:02;50.13;;;29.00;;
41077;SDS011;26823;42.662;23.352;2023-12-29T00:48:33;49.45;;;29.20;;
41077;SDS011;26823;42.662;23.352;2023-12-29T00:51:00;56.85;;;31.08;;
41077;SDS011;26823;42.662;23.352;2023-12-29T00:53:27;52.90;;;29.52;;
41077;SDS011;26823;42.662;23.352;2023-12-29T00:55:54;48.20;;;27.25;;
41077;SDS011;26823;42.662;23.352;2023-12-29T00:58:19;50.78;;;28.63;;
41077;SDS011;26823;42.662;23.352;2023-12-29T01:00:45;55.80;;;30.95;;
41077;SDS011;26823;42.662;23.352;2023-12-29T01:03:10;58.97;;;29.70;;
41077;SDS011;26823;42.662;23.352;2023-12-29T01:05:36;45.97;;;28.60;;
41077;SDS011;26823;42.662;23.352;2023-12-29T01:08:01;53.42;;;28.55;;
41077;SDS011;26823;42.662;23.352;2023-12-29T01:10:27;53.20;;;29.25;;
41077;SDS011;26823;42.662;23.352;2023-12-29T01:12:52;53.40;;;29.30;;
41077;SDS011;26823;42.662;23.352;2023-12-29T01:15:17;53.92;;;29.45;;
41077;SDS011;26823;42.662;23.352;2023-12-29T01:17:43;54.28;;;28.85;;
41077;SDS011;26823;42.662;23.352;2023-12-29T01:20:08;52.65;;;29.05;;
41077;SDS011;26823;42.662;23.352;2023-12-29T01:22:34;48.70;;;29.27;;
41077;SDS011;26823;42.662;23.352;2023-12-29T01:24:59;45.38;;;27.75;;
41077;SDS011;26823;42.662;23.352;2023-12-29T01:27:26;50.00;;;28.08;;
41077;SDS011;26823;42.662;23.352;2023-12-29T01:29:51;54.78;;;29.48;;
41077;SDS011;26823;42.662;23.352;2023-12-29T01:32:18;58.47;;;29.42;;
41077;SDS011;26823;42.662;23.352;2023-12-29T01:34:43;52.10;;;29.75;;
41077;SDS011;26823;42.662;23.352;2023-12-29T01:37:09;51.50;;;29.48;;
41077;SDS011;26823;42.662;23.352;2023-12-29T01:39:34;50.35;;;28.55;;
41077;SDS011;26823;42.662;23.352;2023-12-29T01:42:00;48.78;;;28.63;;
41077;SDS011;26823;42.662;23.352;2023-12-29T01:44:25;54.63;;;30.33;;
41077;SDS011;26823;42.662;23.352;2023-12-29T01:46:51;50.00;;;29.90;;
41077;SDS011;26823;42.662;23.352;2023-12-29T01:49:20;51.25;;;29.55;;
41077;SDS011;26823;42.662;23.352;2023-12-29T01:51:48;52.08;;;32.33;;
41077;SDS011;26823;42.662;23.352;2023-12-29T01:54:23;56.67;;;32.40;;
41077;SDS011;26823;42.662;23.352;2023-12-29T01:56:50;59.40;;;32.70;;
41077;SDS011;26823;42.662;23.352;2023-12-29T01:59:20;57.42;;;33.25;;
41077;SDS011;26823;42.662;23.352;2023-12-29T02:01:46;54.90;;;30.60;;
41077;SDS011;26823;42.662;23.352;2023-12-29T02:04:12;57.63;;;32.75;;
41077;SDS011;26823;42.662;23.352;2023-12-29T02:06:38;54.53;;;31.45;;
41077;SDS011;26823;42.662;23.352;2023-12-29T02:09:04;57.17;;;31.27;;
41077;SDS011;26823;42.662;23.352;2023-12-29T02:11:30;51.17;;;30.23;;
41077;SDS011;26823;42.662;23.352;2023-12-29T02:13:57;55.33;;;31.17;;
41077;SDS011;26823;42.662;23.352;2023-12-29T02:16:33;53.63;;;31.40;;
41077;SDS011;26823;42.662;23.352;2023-12-29T02:19:08;54.05;;;31.52;;
41077;SDS011;26823;42.662;23.352;2023-12-29T02:21:54;48.85;;;27.55;;
41077;SDS011;26823;42.662;23.352;2023-12-29T02:24:19;56.28;;;31.42;;
41077;SDS011;26823;42.662;23.352;2023-12-29T02:26:46;53.40;;;30.60;;
41077;SDS011;26823;42.662;23.352;2023-12-29T02:29:15;54.92;;;31.52;;
41077;SDS011;26823;42.662;23.352;2023-12-29T02:31:45;55.75;;;31.42;;
41077;SDS011;26823;42.662;23.352;2023-12-29T02:34:12;60.70;;;30.98;;
41077;SDS011;26823;42.662;23.352;2023-12-29T02:36:39;55.90;;;29.50;;
41077;SDS011;26823;42.662;23.352;2023-12-29T02:39:08;50.90;;;30.60;;
41077;SDS011;26823;42.662;23.352;2023-12-29T02:41:35;51.47;;;29.92;;
41077;SDS011;26823;42.662;23.352;2023-12-29T02:44:02;56.10;;;29.40;;
41077;SDS011;26823;42.662;23.352;2023-12-29T02:46:28;49.97;;;28.52;;
41077;SDS011;26823;42.662;23.352;2023-12-29T02:48:53;51.25;;;27.80;;
41077;SDS011;26823;42.662;23.352;2023-12-29T02:51:19;50.58;;;27.58;;
41077;SDS011;26823;42.662;23.352;2023-12-29T02:53:44;45.05;;;27.83;;
41077;SDS011;26823;42.662;23.352;2023-12-29T02:56:09;47.78;;;29.50;;
41077;SDS011;26823;42.662;23.352;2023-12-29T02:58:35;51.70;;;29.25;;
41077;SDS011;26823;42.662;23.352;2023-12-29T03:01:00;59.75;;;33.50;;
41077;SDS011;26823;42.662;23.352;2023-12-29T03:03:26;57.47;;;32.08;;
41077;SDS011;26823;42.662;23.352;2023-12-29T03:05:51;55.15;;;32.67;;
41077;SDS011;26823;42.662;23.352;2023-12-29T03:08:16;60.72;;;34.78;;
41077;SDS011;26823;42.662;23.352;2023-12-29T03:10:42;67.57;;;39.47;;
41077;SDS011;26823;42.662;23.352;2023-12-29T03:13:07;75.60;;;40.13;;
41077;SDS011;26823;42.662;23.352;2023-12-29T03:15:33;77.70;;;41.85;;
41077;SDS011;26823;42.662;23.352;2023-12-29T03:17:58;77.55;;;42.00;;
41077;SDS011;26823;42.662;23.352;2023-12-29T03:20:24;72.50;;;42.63;;
41077;SDS011;26823;42.662;23.352;2023-12-29T03:22:49;73.25;;;39.90;;
41077;SDS011;26823;42.662;23.352;2023-12-29T03:25:14;71.47;;;40.78;;
41077;SDS011;26823;42.662;23.352;2023-12-29T03:27:40;68.43;;;39.03;;
41077;SDS011;26823;42.662;23.352;2023-12-29T03:30:05;66.03;;;38.53;;
41077;SDS011;26823;42.662;23.352;2023-12-29T03:32:31;70.97;;;38.70;;
41077;SDS011;26823;42.662;23.352;2023-12-29T03:34:57;76.72;;;42.17;;
41077;SDS011;26823;42.662;23.352;2023-12-29T03:37:22;71.75;;;42.42;;
41077;SDS011;26823;42.662;23.352;2023-12-29T03:39:47;75.72;;;43.30;;
41077;SDS011;26823;42.662;23.352;2023-12-29T03:42:13;76.57;;;42.30;;
41077;SDS011;26823;42.662;23.352;2023-12-29T03:44:38;70.03;;;42.92;;
41077;SDS011;26823;42.662;23.352;2023-12-29T03:47:04;76.63;;;44.88;;
41077;SDS011;26823;42.662;23.352;2023-12-29T03:49:29;76.80;;;42.67;;
41077;SDS011;26823;42.662;23.352;2023-12-29T03:51:55;66.40;;;41.03;;
41077;SDS011;26823;42.662;23.352;2023-12-29T03:54:20;69.55;;;40.13;;
41077;SDS011;26823;42.662;23.352;2023-12-29T03:56:46;64.65;;;37.90;;
41077;SDS011;26823;42.662;23.352;2023-12-29T03:59:12;59.58;;;37.70;;
41077;SDS011;26823;42.662;23.352;2023-12-29T04:01:37;64.43;;;37.08;;
41077;SDS011;26823;42.662;23.352;2023-12-29T04:04:02;60.55;;;35.15;;
41077;SDS011;26823;42.662;23.352;2023-12-29T04:06:28;61.67;;;36.58;;
41077;SDS011;26823;42.662;23.352;2023-12-29T04:08:53;57.95;;;33.97;;
41077;SDS011;26823;42.662;23.352;2023-12-29T04:11:19;56.95;;;31.58;;
41077;SDS011;26823;42.662;23.352;2023-12-29T04:13:44;56.15;;;32.90;;
41077;SDS011;26823;42.662;23.352;2023-12-29T04:16:10;59.03;;;31.77;;
41077;SDS011;26823;42.662;23.352;2023-12-29T04:18:35;55.03;;;31.70;;
41077;SDS011;26823;42.662;23.352;2023-12-29T04:21:00;53.00;;;31.75;;
41077;SDS011;26823;42.662;23.352;2023-12-29T04:23:26;51.20;;;31.10;;
41077;SDS011;26823;42.662;23.352;2023-12-29T04:25:52;56.13;;;31.42;;
41077;SDS011;26823;42.662;23.352;2023-12-29T04:28:17;54.63;;;31.00;;
41077;SDS011;26823;42.662;23.352;2023-12-29T04:30:42;58.85;;;32.65;;
41077;SDS011;26823;42.662;23.352;2023-12-29T04:33:08;57.72;;;31.88;;
41077;SDS011;26823;42.662;23.352;2023-12-29T04:35:33;50.35;;;31.08;;
41077;SDS011;26823;42.662;23.352;2023-12-29T04:37:59;54.35;;;30.98;;
41077;SDS011;26823;42.662;23.352;2023-12-29T04:40:24;50.83;;;30.70;;
41077;SDS011;26823;42.662;23.352;2023-12-29T04:42:49;51.30;;;30.80;;
41077;SDS011;26823;42.662;23.352;2023-12-29T04:45:15;55.90;;;30.85;;
41077;SDS011;26823;42.662;23.352;2023-12-29T04:47:40;51.53;;;30.52;;
41077;SDS011;26823;42.662;23.352;2023-12-29T04:50:06;49.53;;;30.55;;
41077;SDS011;26823;42.662;23.352;2023-12-29T04:52:32;50.47;;;31.73;;
41077;SDS011;26823;42.662;23.352;2023-12-29T04:54:57;60.33;;;33.55;;
41077;SDS011;26823;42.662;23.352;2023-12-29T04:57:22;47.90;;;32.35;;
41077;SDS011;26823;42.662;23.352;2023-12-29T04:59:48;59.60;;;33.42;;
41077;SDS011;26823;42.662;23.352;2023-12-29T05:02:13;52.38;;;31.50;;
41077;SDS011;26823;42.662;23.352;2023-12-29T05:04:39;58.08;;;33.00;;
41077;SDS011;26823;42.662;23.352;2023-12-29T05:07:08;54.50;;;32.30;;
41077;SDS011;26823;42.662;23.352;2023-12-29T05:09:34;55.40;;;31.98;;
41077;SDS011;26823;42.662;23.352;2023-12-29T05:11:59;52.30;;;31.80;;
41077;SDS011;26823;42.662;23.352;2023-12-29T05:14:25;55.67;;;32.10;;
41077;SDS011;26823;42.662;23.352;2023-12-29T05:16:50;54.72;;;32.60;;
41077;SDS011;26823;42.662;23.352;2023-12-29T05:19:16;59.13;;;32.85;;
41077;SDS011;26823;42.662;23.352;2023-12-29T05:21:41;51.28;;;31.25;;
41077;SDS011;26823;42.662;23.352;2023-12-29T05:24:07;56.42;;;31.60;;
41077;SDS011;26823;42.662;23.352;2023-12-29T05:26:33;59.53;;;34.20;;
41077;SDS011;26823;42.662;23.352;2023-12-29T05:28:58;56.85;;;33.75;;
41077;SDS011;26823;42.662;23.352;2023-12-29T05:31:24;64.25;;;37.13;;
41077;SDS011;26823;42.662;23.352;2023-12-29T05:33:50;65.95;;;37.00;;
41077;SDS011;26823;42.662;23.352;2023-12-29T05:36:16;69.90;;;41.35;;
41077;SDS011;26823;42.662;23.352;2023-12-29T05:38:42;71.28;;;41.67;;
41077;SDS011;26823;42.662;23.352;2023-12-29T05:41:12;71.00;;;40.28;;
41077;SDS011;26823;42.662;23.352;2023-12-29T05:43:38;76.65;;;43.65;;
41077;SDS011;26823;42.662;23.352;2023-12-29T05:46:08;86.35;;;45.92;;
41077;SDS011;26823;42.662;23.352;2023-12-29T05:48:35;87.60;;;44.28;;
41077;SDS011;26823;42.662;23.352;2023-12-29T05:51:10;77.82;;;46.17;;
41077;SDS011;26823;42.662;23.352;2023-12-29T05:53:41;71.82;;;43.92;;
41077;SDS011;26823;42.662;23.352;2023-12-29T05:56:07;78.82;;;44.33;;
41077;SDS011;26823;42.662;23.352;2023-12-29T05:58:33;76.53;;;45.63;;
41077;SDS011;26823;42.662;23.352;2023-12-29T06:00:58;86.72;;;46.58;;
41077;SDS011;26823;42.662;23.352;2023-12-29T06:03:25;83.10;;;46.88;;
41077;SDS011;26823;42.662;23.352;2023-12-29T06:05:51;79.88;;;44.28;;
41077;SDS011;26823;42.662;23.352;2023-12-29T06:08:17;81.47;;;46.78;;
41077;SDS011;26823;42.662;23.352;2023-12-29T06:10:42;81.13;;;46.70;;
41077;SDS011;26823;42.662;23.352;2023-12-29T06:13:08;76.43;;;46.42;;
41077;SDS011;26823;42.662;23.352;2023-12-29T06:15:33;84.85;;;47.10;;
41077;SDS011;26823;42.662;23.352;2023-12-29T06:18:01;86.80;;;48.42;;
41077;SDS011;26823;42.662;23.352;2023-12-29T06:20:27;77.38;;;46.00;;
41077;SDS011;26823;42.662;23.352;2023-12-29T06:22:52;80.85;;;46.83;;
41077;SDS011;26823;42.662;23.352;2023-12-29T06:25:18;85.03;;;46.75;;
41077;SDS011;26823;42.662;23.352;2023-12-29T06:27:44;80.85;;;46.90;;
41077;SDS011;26823;42.662;23.352;2023-12-29T06:30:09;83.45;;;47.17;;
41077;SDS011;26823;42.662;23.352;2023-12-29T06:32:36;78.35;;;45.47;;
41077;SDS011;26823;42.662;23.352;2023-12-29T06:35:02;75.60;;;44.08;;
41077;SDS011;26823;42.662;23.352;2023-12-29T06:37:28;81.15;;;46.42;;
41077;SDS011;26823;42.662;23.352;2023-12-29T06:39:54;86.88;;;47.88;;
41077;SDS011;26823;42.662;23.352;2023-12-29T06:42:19;82.60;;;48.28;;
41077;SDS011;26823;42.662;23.352;2023-12-29T06:44:45;90.30;;;49.58;;
41077;SDS011;26823;42.662;23.352;2023-12-29T06:47:11;90.63;;;48.50;;
41077;SDS011;26823;42.662;23.352;2023-12-29T06:49:36;88.80;;;49.42;;
41077;SDS011;26823;42.662;23.352;2023-12-29T06:52:02;84.00;;;48.50;;
41077;SDS011;26823;42.662;23.352;2023-12-29T06:54:28;81.18;;;47.25;;
41077;SDS011;26823;42.662;23.352;2023-12-29T06:56:53;80.53;;;47.70;;
41077;SDS011;26823;42.662;23.352;2023-12-29T06:59:19;79.40;;;48.15;;
41077;SDS011;26823;42.662;23.352;2023-12-29T07:01:45;83.07;;;47.58;;
41077;SDS011;26823;42.662;23.352;2023-12-29T07:04:11;82.53;;;47.28;;
41077;SDS011;26823;42.662;23.352;2023-12-29T07:06:37;81.75;;;46.30;;
41077;SDS011;26823;42.662;23.352;2023-12-29T07:09:03;77.63;;;47.97;;
41077;SDS011;26823;42.662;23.352;2023-12-29T07:11:29;85.38;;;47.00;;
41077;SDS011;26823;42.662;23.352;2023-12-29T07:13:55;80.97;;;46.17;;
41077;SDS011;26823;42.662;23.352;2023-12-29T07:16:20;82.93;;;46.92;;
41077;SDS011;26823;42.662;23.352;2023-12-29T07:18:46;80.75;;;44.72;;
41077;SDS011;26823;42.662;23.352;2023-12-29T07:21:12;75.35;;;44.95;;
41077;SDS011;26823;42.662;23.352;2023-12-29T07:23:38;78.78;;;45.35;;
41077;SDS011;26823;42.662;23.352;2023-12-29T07:26:04;77.20;;;44.90;;
41077;SDS011;26823;42.662;23.352;2023-12-29T07:28:30;73.13;;;43.17;;
41077;SDS011;26823;42.662;23.352;2023-12-29T07:30:56;75.18;;;44.40;;
41077;SDS011;26823;42.662;23.352;2023-12-29T07:33:22;79.00;;;45.17;;
41077;SDS011;26823;42.662;23.352;2023-12-29T07:35:49;67.32;;;41.85;;
41077;SDS011;26823;42.662;23.352;2023-12-29T07:38:14;76.20;;;44.60;;
41077;SDS011;26823;42.662;23.352;2023-12-29T07:40:40;71.18;;;43.45;;
41077;SDS011;26823;42.662;23.352;2023-12-29T07:43:05;72.05;;;42.95;;
41077;SDS011;26823;42.662;23.352;2023-12-29T07:45:31;74.47;;;42.53;;
41077;SDS011;26823;42.662;23.352;2023-12-29T07:47:56;63.22;;;40.67;;
41077;SDS011;26823;42.662;23.352;2023-12-29T07:50:22;77.18;;;43.30;;
41077;SDS011;26823;42.662;23.352;2023-12-29T07:52:47;67.72;;;39.97;;
41077;SDS011;26823;42.662;23.352;2023-12-29T07:55:13;64.47;;;40.95;;
41077;SDS011;26823;42.662;23.352;2023-12-29T07:57:41;70.95;;;39.70;;
41077;SDS011;26823;42.662;23.352;2023-12-29T08:00:07;71.20;;;40.60;;
41077;SDS011;26823;42.662;23.352;2023-12-29T08:02:33;60.15;;;37.38;;
41077;SDS011;26823;42.662;23.352;2023-12-29T08:04:58;61.97;;;39.20;;
41077;SDS011;26823;42.662;23.352;2023-12-29T08:07:23;67.70;;;41.08;;
41077;SDS011;26823;42.662;23.352;2023-12-29T08:09:49;70.30;;;42.42;;
41077;SDS011;26823;42.662;23.352;2023-12-29T08:12:14;69.65;;;41.25;;
41077;SDS011;26823;42.662;23.352;2023-12-29T08:14:40;76.22;;;41.65;;
41077;SDS011;26823;42.662;23.352;2023-12-29T08:17:05;69.50;;;43.25;;
41077;SDS011;26823;42.662;23.352;2023-12-29T08:19:32;65.28;;;42.60;;
41077;SDS011;26823;42.662;23.352;2023-12-29T08:21:57;79.97;;;48.88;;
41077;SDS011;26823;42.662;23.352;2023-12-29T08:24:23;96.03;;;54.35;;
41077;SDS011;26823;42.662;23.352;2023-12-29T08:26:48;97.15;;;59.03;;
41077;SDS011;26823;42.662;23.352;2023-12-29T08:29:14;96.93;;;59.15;;
41077;SDS011;26823;42.662;23.352;2023-12-29T08:31:41;89.90;;;58.55;;
41077;SDS011;26823;42.662;23.352;2023-12-29T08:34:07;94.10;;;58.28;;
41077;SDS011;26823;42.662;23.352;2023-12-29T08:36:33;85.85;;;57.75;;
41077;SDS011;26823;42.662;23.352;2023-12-29T08:38:58;87.28;;;57.75;;
41077;SDS011;26823;42.662;23.352;2023-12-29T08:41:23;87.25;;;55.38;;
41077;SDS011;26823;42.662;23.352;2023-12-29T08:43:49;84.53;;;54.13;;
41077;SDS011;26823;42.662;23.352;2023-12-29T08:46:14;87.00;;;53.40;;
41077;SDS011;26823;42.662;23.352;2023-12-29T08:48:40;80.10;;;51.28;;
41077;SDS011;26823;42.662;23.352;2023-12-29T08:51:05;79.70;;;49.80;;
41077;SDS011;26823;42.662;23.352;2023-12-29T08:53:31;79.88;;;50.15;;
41077;SDS011;26823;42.662;23.352;2023-12-29T08:56:00;79.47;;;49.85;;
41077;SDS011;26823;42.662;23.352;2023-12-29T08:58:26;79.43;;;47.83;;
41077;SDS011;26823;42.662;23.352;2023-12-29T09:00:52;73.35;;;46.28;;
41077;SDS011;26823;42.662;23.352;2023-12-29T09:03:17;72.40;;;45.05;;
41077;SDS011;26823;42.662;23.352;2023-12-29T09:05:43;65.75;;;42.67;;
41077;SDS011;26823;42.662;23.352;2023-12-29T09:08:08;57.03;;;38.58;;
41077;SDS011;26823;42.662;23.352;2023-12-29T09:10:34;54.47;;;38.90;;
41077;SDS011;26823;42.662;23.352;2023-12-29T09:12:59;63.22;;;40.97;;
41077;SDS011;26823;42.662;23.352;2023-12-29T09:15:24;61.45;;;42.60;;
41077;SDS011;26823;42.662;23.352;2023-12-29T09:17:50;59.17;;;38.15;;
41077;SDS011;26823;42.662;23.352;2023-12-29T09:20:16;50.85;;;33.05;;
41077;SDS011;26823;42.662;23.352;2023-12-29T09:22:41;46.53;;;30.25;;
41077;SDS011;26823;42.662;23.352;2023-12-29T09:25:07;42.35;;;29.20;;
41077;SDS011;26823;42.662;23.352;2023-12-29T09:27:32;42.55;;;29.83;;
41077;SDS011;26823;42.662;23.352;2023-12-29T09:29:58;49.42;;;31.73;;
41077;SDS011;26823;42.662;23.352;2023-12-29T09:32:23;46.10;;;31.35;;
41077;SDS011;26823;42.662;23.352;2023-12-29T09:34:49;45.70;;;30.90;;
41077;SDS011;26823;42.662;23.352;2023-12-29T09:37:14;49.22;;;30.52;;
41077;SDS011;26823;42.662;23.352;2023-12-29T09:39:40;40.78;;;29.10;;
41077;SDS011;26823;42.662;23.352;2023-12-29T09:42:06;43.40;;;28.73;;
41077;SDS011;26823;42.662;23.352;2023-12-29T09:44:38;43.53;;;29.83;;
41077;SDS011;26823;42.662;23.352;2023-12-29T09:47:05;46.03;;;30.63;;
41077;SDS011;26823;42.662;23.352;2023-12-29T09:49:38;49.13;;;33.05;;
41077;SDS011;26823;42.662;23.352;2023-12-29T09:52:07;46.85;;;32.47;;
41077;SDS011;26823;42.662;23.352;2023-12-29T09:54:35;55.08;;;34.10;;
41077;SDS011;26823;42.662;23.352;2023-12-29T09:57:02;47.33;;;33.60;;
41077;SDS011;26823;42.662;23.352;2023-12-29T09:59:29;43.50;;;31.40;;
41077;SDS011;26823;42.662;23.352;2023-12-29T10:01:57;47.15;;;32.15;;
41077;SDS011;26823;42.662;23.352;2023-12-29T10:04:23;39.50;;;30.55;;
41077;SDS011;26823;42.662;23.352;2023-12-29T10:06:48;45.63;;;32.72;;
41077;SDS011;26823;42.662;23.352;2023-12-29T10:09:15;47.33;;;31.88;;
41077;SDS011;26823;42.662;23.352;2023-12-29T10:11:43;40.83;;;31.80;;
41077;SDS011;26823;42.662;23.352;2023-12-29T10:14:23;45.97;;;30.38;;
41077;SDS011;26823;42.662;23.352;2023-12-29T10:17:06;41.20;;;30.77;;
41077;SDS011;26823;42.662;23.352;2023-12-29T10:19:40;45.17;;;30.13;;
41077;SDS011;26823;42.662;23.352;2023-12-29T10:22:21;47.42;;;31.50;;
41077;SDS011;26823;42.662;23.352;2023-12-29T10:24:49;43.50;;;30.25;;
41077;SDS011;26823;42.662;23.352;2023-12-29T10:27:16;43.58;;;30.20;;
41077;SDS011;26823;42.662;23.352;2023-12-29T10:29:41;40.03;;;30.27;;
41077;SDS011;26823;42.662;23.352;2023-12-29T10:32:07;49.67;;;30.00;;
41077;SDS011;26823;42.662;23.352;2023-12-29T10:34:32;44.47;;;31.15;;
41077;SDS011;26823;42.662;23.352;2023-12-29T10:36:58;45.83;;;31.42;;
41077;SDS011;26823;42.662;23.352;2023-12-29T10:39:24;44.50;;;29.60;;
41077;SDS011;26823;42.662;23.352;2023-12-29T10:41:50;46.58;;;30.17;;
41077;SDS011;26823;42.662;23.352;2023-12-29T10:44:28;38.05;;;30.10;;
41077;SDS011;26823;42.662;23.352;2023-12-29T10:46:53;49.55;;;29.98;;
41077;SDS011;26823;42.662;23.352;2023-12-29T10:49:19;41.80;;;30.50;;
41077;SDS011;26823;42.662;23.352;2023-12-29T10:51:45;39.83;;;30.60;;
41077;SDS011;26823;42.662;23.352;2023-12-29T10:54:18;44.47;;;30.75;;
41077;SDS011;26823;42.662;23.352;2023-12-29T10:57:00;41.30;;;29.58;;
41077;SDS011;26823;42.662;23.352;2023-12-29T10:59:26;43.17;;;30.65;;
41077;SDS011;26823;42.662;23.352;2023-12-29T11:01:51;45.90;;;29.60;;
41077;SDS011;26823;42.662;23.352;2023-12-29T11:04:21;43.83;;;32.15;;
41077;SDS011;26823;42.662;23.352;2023-12-29T11:06:47;43.60;;;32.80;;
41077;SDS011;26823;42.662;23.352;2023-12-29T11:09:13;45.83;;;33.67;;
41077;SDS011;26823;42.662;23.352;2023-12-29T11:11:39;45.25;;;33.83;;
41077;SDS011;26823;42.662;23.352;2023-12-29T11:14:06;44.60;;;33.80;;
41077;SDS011;26823;42.662;23.352;2023-12-29T11:16:36;46.13;;;31.23;;
41077;SDS011;26823;42.662;23.352;2023-12-29T11:19:01;46.40;;;33.35;;
41077;SDS011;26823;42.662;23.352;2023-12-29T11:21:28;45.38;;;31.30;;
41077;SDS011;26823;42.662;23.352;2023-12-29T11:23:56;59.50;;;33.90;;
41077;SDS011;26823;42.662;23.352;2023-12-29T11:26:21;46.53;;;32.25;;
41077;SDS011;26823;42.662;23.352;2023-12-29T11:28:47;45.20;;;31.48;;
41077;SDS011;26823;42.662;23.352;2023-12-29T11:31:16;37.33;;;31.00;;
41077;SDS011;26823;42.662;23.352;2023-12-29T11:33:43;40.42;;;30.77;;
41077;SDS011;26823;42.662;23.352;2023-12-29T11:36:15;42.38;;;30.40;;
41077;SDS011;26823;42.662;23.352;2023-12-29T11:41:24;40.33;;;31.30;;
41077;SDS011;26823;42.662;23.352;2023-12-29T11:44:00;43.08;;;31.30;;
41077;SDS011;26823;42.662;23.352;2023-12-29T11:46:36;44.33;;;31.50;;
41077;SDS011;26823;42.662;23.352;2023-12-29T11:49:03;40.63;;;31.13;;
41077;SDS011;26823;42.662;23.352;2023-12-29T11:54:10;39.28;;;30.38;;
41077;SDS011;26823;42.662;23.352;2023-12-29T11:56:47;41.92;;;31.48;;
41077;SDS011;26823;42.662;23.352;2023-12-29T11:59:13;38.95;;;30.23;;
41077;SDS011;26823;42.662;23.352;2023-12-29T12:01:39;49.17;;;32.10;;
41077;SDS011;26823;42.662;23.352;2023-12-29T12:04:33;37.80;;;31.50;;
41077;SDS011;26823;42.662;23.352;2023-12-29T12:07:13;43.45;;;30.42;;
41077;SDS011;26823;42.662;23.352;2023-12-29T12:09:38;45.05;;;30.27;;
41077;SDS011;26823;42.662;23.352;2023-12-29T12:12:04;42.55;;;31.20;;
41077;SDS011;26823;42.662;23.352;2023-12-29T12:17:26;41.70;;;29.60;;
41077;SDS011;26823;42.662;23.352;2023-12-29T12:20:03;51.53;;;32.00;;
41077;SDS011;26823;42.662;23.352;2023-12-29T12:22:33;42.15;;;30.02;;
41077;SDS011;26823;42.662;23.352;2023-12-29T12:25:00;42.53;;;31.95;;
41077;SDS011;26823;42.662;23.352;2023-12-29T12:27:27;41.92;;;30.90;;
41077;SDS011;26823;42.662;23.352;2023-12-29T12:29:53;45.80;;;31.02;;
41077;SDS011;26823;42.662;23.352;2023-12-29T12:32:24;43.08;;;31.38;;
41077;SDS011;26823;42.662;23.352;2023-12-29T12:34:53;40.53;;;31.13;;
41077;SDS011;26823;42.662;23.352;2023-12-29T12:37:20;39.95;;;28.50;;
41077;SDS011;26823;42.662;23.352;2023-12-29T12:39:49;39.95;;;30.00;;
41077;SDS011;26823;42.662;23.352;2023-12-29T12:42:16;41.63;;;30.63;;
41077;SDS011;26823;42.662;23.352;2023-12-29T12:44:46;40.53;;;29.33;;
41077;SDS011;26823;42.662;23.352;2023-12-29T12:47:17;50.95;;;29.52;;
41077;SDS011;26823;42.662;23.352;2023-12-29T12:49:49;46.67;;;32.07;;
41077;SDS011;26823;42.662;23.352;2023-12-29T12:52:15;44.17;;;32.58;;
41077;SDS011;26823;42.662;23.352;2023-12-29T12:54:40;46.30;;;30.90;;
41077;SDS011;26823;42.662;23.352;2023-12-29T12:57:06;47.35;;;30.70;;
41077;SDS011;26823;42.662;23.352;2023-12-29T12:59:32;39.38;;;29.10;;
41077;SDS011;26823;42.662;23.352;2023-12-29T13:01:58;48.47;;;30.35;;
41077;SDS011;26823;42.662;23.352;2023-12-29T13:04:23;48.10;;;30.13;;
41077;SDS011;26823;42.662;23.352;2023-12-29T13:06:49;42.90;;;29.88;;
41077;SDS011;26823;42.662;23.352;2023-12-29T13:09:14;47.25;;;29.80;;
41077;SDS011;26823;42.662;23.352;2023-12-29T13:11:44;42.22;;;29.95;;
41077;SDS011;26823;42.662;23.352;2023-12-29T13:14:19;47.08;;;29.48;;
41077;SDS011;26823;42.662;23.352;2023-12-29T13:16:48;41.33;;;28.67;;
41077;SDS011;26823;42.662;23.352;2023-12-29T13:19:24;39.67;;;29.30;;
41077;SDS011;26823;42.662;23.352;2023-12-29T13:21:53;44.35;;;29.45;;
41077;SDS011;26823;42.662;23.352;2023-12-29T13:24:23;37.20;;;24.52;;
41077;SDS011;26823;42.662;23.352;2023-12-29T13:26:50;37.28;;;25.45;;
41077;SDS011;26823;42.662;23.352;2023-12-29T13:29:21;34.00;;;23.27;;
41077;SDS011;26823;42.662;23.352;2023-12-29T13:31:49;34.70;;;22.33;;
41077;SDS011;26823;42.662;23.352;2023-12-29T13:34:21;31.02;;;22.38;;
41077;SDS011;26823;42.662;23.352;2023-12-29T13:37:18;32.25;;;22.23;;
41077;SDS011;26823;42.662;23.352;2023-12-29T13:39:53;33.88;;;22.33;;
41077;SDS011;26823;42.662;23.352;2023-12-29T13:42:20;30.70;;;21.45;;
41077;SDS011;26823;42.662;23.352;2023-12-29T13:44:49;29.73;;;17.48;;
41077;SDS011;26823;42.662;23.352;2023-12-29T13:47:16;24.10;;;17.52;;
41077;SDS011;26823;42.662;23.352;2023-12-29T13:49:42;22.55;;;14.93;;
41077;SDS011;26823;42.662;23.352;2023-12-29T13:52:08;23.80;;;13.60;;
41077;SDS011;26823;42.662;23.352;2023-12-29T13:54:43;19.75;;;14.40;;
41077;SDS011;26823;42.662;23.352;2023-12-29T13:57:08;21.35;;;14.07;;
41077;SDS011;26823;42.662;23.352;2023-12-29T13:59:34;21.67;;;12.80;;
41077;SDS011;26823;42.662;23.352;2023-12-29T14:02:04;17.13;;;12.70;;
41077;SDS011;26823;42.662;23.352;2023-12-29T14:07:10;33.83;;;20.63;;
41077;SDS011;26823;42.662;23.352;2023-12-29T14:09:36;23.77;;;13.20;;
41077;SDS011;26823;42.662;23.352;2023-12-29T14:12:02;22.73;;;12.77;;
41077;SDS011;26823;42.662;23.352;2023-12-29T14:14:29;22.20;;;11.15;;
41077;SDS011;26823;42.662;23.352;2023-12-29T14:16:54;24.17;;;11.55;;
41077;SDS011;26823;42.662;23.352;2023-12-29T14:19:20;20.73;;;10.88;;